createdAt,value
2023-02-19T00:02:41.562Z,100451.03
2023-02-19T00:05:44.599Z,100459.44
2023-02-19T00:08:47.690Z,100441.97
2023-02-19T00:11:50.761Z,100449.94
2023-02-19T00:14:55.332Z,100444.81
2023-02-19T00:17:58.464Z,100452.81
2023-02-19T00:21:01.209Z,100456.41
2023-02-19T00:24:06.799Z,100466.06
2023-02-19T00:27:09.566Z,100454.94
2023-02-19T00:30:12.868Z,100462.91
2023-02-19T00:33:16.820Z,100458.53
2023-02-19T00:36:20.119Z,100465.28
2023-02-19T00:39:22.791Z,100460.53
2023-02-19T00:42:26.309Z,100462.09
2023-02-19T00:45:29.089Z,100454.41
2023-02-19T00:48:32.025Z,100446.06
2023-02-19T00:51:37.510Z,100446.84
2023-02-19T00:54:40.480Z,100451.50
2023-02-19T00:57:43.187Z,100457.78
2023-02-19T01:00:46.787Z,100455.78
2023-02-19T01:03:50.494Z,100461.34
2023-02-19T01:06:53.727Z,100453.78
2023-02-19T01:09:56.456Z,100462.59
2023-02-19T01:12:59.502Z,100453.94
2023-02-19T01:16:05.378Z,100446.44
2023-02-19T01:19:08.505Z,100446.03
2023-02-19T01:22:11.185Z,100440.84
2023-02-19T01:25:14.235Z,100438.81
2023-02-19T01:28:17.322Z,100435.19
2023-02-19T01:31:23.398Z,100438.56
2023-02-19T01:34:27.260Z,100428.69
2023-02-19T01:37:31.268Z,100418.81
2023-02-19T01:40:34.469Z,100423.97
2023-02-19T01:44:03.205Z,100419.87
2023-02-19T01:47:06.021Z,100415.69
2023-02-19T01:50:09.277Z,100414.59
2023-02-19T01:53:15.442Z,100417.97
2023-02-19T01:56:20.611Z,100421.03
2023-02-19T01:59:23.656Z,100412.28
2023-02-19T02:02:28.608Z,100425.72
2023-02-19T02:05:53.431Z,100418.56
2023-02-19T02:09:16.754Z,100412.78
2023-02-19T02:12:19.815Z,100395.75
2023-02-19T02:15:29.282Z,100397.97
2023-02-19T02:18:51.074Z,100396.81
2023-02-19T02:22:04.466Z,100388.78
2023-02-19T02:25:28.933Z,100394.19
2023-02-19T02:28:56.502Z,100404.47
2023-02-19T02:32:21.904Z,100394.25
2023-02-19T02:35:30.798Z,100384.84
2023-02-19T02:38:37.390Z,100384.84
2023-02-19T02:42:19.189Z,100397.97
2023-02-19T02:45:35.757Z,100400.59
2023-02-19T02:48:44.570Z,100414.00
2023-02-19T02:51:53.098Z,100409.34
2023-02-19T02:55:05.223Z,100414.59
2023-02-19T02:58:10.253Z,100407.72
2023-02-19T03:01:38.121Z,100410.81
2023-02-19T03:05:14.897Z,100404.53
2023-02-19T03:08:43.847Z,100402.72
2023-02-19T03:12:09.129Z,100407.91
2023-02-19T03:15:34.157Z,100399.41
2023-02-19T03:19:04.162Z,100404.31
2023-02-19T03:22:12.359Z,100398.59
2023-02-19T03:25:44.089Z,100400.06
2023-02-19T03:29:08.870Z,100396.50
2023-02-19T03:32:18.971Z,100391.41
2023-02-19T03:35:26.575Z,100387.03
2023-02-19T03:38:45.638Z,100387.47
2023-02-19T03:41:59.067Z,100381.50
2023-02-19T03:45:11.121Z,100380.09
2023-02-19T03:48:32.133Z,100378.12
2023-02-19T03:51:51.437Z,100370.97
2023-02-19T03:55:11.247Z,100375.19
2023-02-19T03:58:28.678Z,100382.31
2023-02-19T04:01:43.197Z,100365.44
2023-02-19T04:04:56.070Z,100357.22
2023-02-19T04:08:10.519Z,100364.12
2023-02-19T04:11:17.212Z,100354.34
2023-02-19T04:14:23.347Z,100354.53
2023-02-19T04:17:44.428Z,100365.41
2023-02-19T04:20:48.566Z,100379.81
2023-02-19T04:23:51.989Z,100378.47
2023-02-19T04:26:56.040Z,100374.62
2023-02-19T04:29:59.211Z,100370.31
2023-02-19T04:33:01.997Z,100372.47
2023-02-19T04:36:05.657Z,100374.75
2023-02-19T04:39:08.892Z,100371.41
2023-02-19T04:42:11.869Z,100378.91
2023-02-19T04:45:14.625Z,100370.84
2023-02-19T04:48:17.620Z,100373.94
2023-02-19T04:51:20.419Z,100361.59
2023-02-19T04:54:23.626Z,100356.22
2023-02-19T04:57:26.283Z,100352.37
2023-02-19T05:00:29.417Z,100344.16
2023-02-19T05:03:32.738Z,100357.72
2023-02-19T05:06:35.926Z,100360.62
2023-02-19T05:09:38.607Z,100363.25
2023-02-19T05:12:41.639Z,100351.19
2023-02-19T05:15:57.831Z,100369.31
2023-02-19T05:19:00.983Z,100379.91
2023-02-19T05:22:03.695Z,100374.06
2023-02-19T05:25:06.925Z,100374.88
2023-02-19T05:28:19.121Z,100369.75
2023-02-19T05:31:22.333Z,100366.03
2023-02-19T05:34:25.120Z,100365.44
2023-02-19T05:37:28.271Z,100371.44
2023-02-19T05:40:30.993Z,100362.72
2023-02-19T05:43:34.237Z,100370.19
2023-02-19T05:46:36.911Z,100372.53
2023-02-19T05:49:40.282Z,100373.34
2023-02-19T05:52:44.370Z,100364.62
2023-02-19T05:55:47.470Z,100368.63
2023-02-19T05:58:50.623Z,100362.16
2023-02-19T06:01:55.209Z,100360.53
2023-02-19T06:04:58.241Z,100363.56
2023-02-19T06:08:00.938Z,100366.97
2023-02-19T06:11:04.174Z,100365.00
2023-02-19T06:14:07.234Z,100361.47
2023-02-19T06:17:10.294Z,100359.47
2023-02-19T06:20:13.303Z,100361.75
2023-02-19T06:23:16.416Z,100362.66
2023-02-19T06:26:20.918Z,100356.00
2023-02-19T06:29:25.599Z,100346.53
2023-02-19T06:32:28.394Z,100351.34
2023-02-19T06:35:31.474Z,100358.19
2023-02-19T06:38:34.289Z,100351.94
2023-02-19T06:41:37.353Z,100353.06
2023-02-19T06:44:40.100Z,100351.69
2023-02-19T06:47:43.195Z,100350.22
2023-02-19T06:50:45.925Z,100361.97
2023-02-19T06:53:48.916Z,100348.69
2023-02-19T06:56:52.009Z,100355.19
2023-02-19T06:59:55.112Z,100362.09
2023-02-19T07:02:57.948Z,100362.69
2023-02-19T07:06:01.273Z,100356.59
2023-02-19T07:09:06.109Z,100360.38
2023-02-19T07:12:10.250Z,100356.13
2023-02-19T07:15:12.959Z,100361.00
2023-02-19T07:18:16.121Z,100357.06
2023-02-19T07:21:19.724Z,100364.56
2023-02-19T07:24:23.079Z,100367.69
2023-02-19T07:27:25.860Z,100377.53
2023-02-19T07:30:29.117Z,100378.59
2023-02-19T07:33:31.946Z,100378.00
2023-02-19T07:36:35.074Z,100376.09
2023-02-19T07:39:37.857Z,100393.81
2023-02-19T07:42:40.816Z,100399.69
2023-02-19T07:45:43.596Z,100400.38
2023-02-19T07:48:46.723Z,100409.75
2023-02-19T07:51:49.460Z,100401.00
2023-02-19T07:54:52.609Z,100406.22
2023-02-19T07:57:55.373Z,100401.56
2023-02-19T08:00:58.566Z,100402.06
2023-02-19T08:04:01.703Z,100395.12
2023-02-19T08:07:05.589Z,100390.19
2023-02-19T08:10:27.180Z,100389.31
2023-02-19T08:13:31.080Z,100387.25
2023-02-19T08:16:42.959Z,100381.72
2023-02-19T08:19:46.227Z,100385.75
2023-02-19T08:22:50.379Z,100384.22
2023-02-19T08:25:54.449Z,100389.41
2023-02-19T08:28:59.187Z,100386.72
2023-02-19T08:32:01.994Z,100386.03
2023-02-19T08:35:05.433Z,100378.53
2023-02-19T08:38:08.560Z,100381.38
2023-02-19T08:41:13.835Z,100378.28
2023-02-19T08:44:16.836Z,100387.13
2023-02-19T08:47:19.777Z,100400.13
2023-02-19T08:50:22.740Z,100401.38
2023-02-19T08:53:26.748Z,100406.19
2023-02-19T08:56:29.563Z,100407.81
2023-02-19T08:59:32.901Z,100403.16
2023-02-19T09:02:36.301Z,100396.94
2023-02-19T09:05:39.944Z,100408.62
2023-02-19T09:08:42.785Z,100402.81
2023-02-19T09:11:47.848Z,100409.69
2023-02-19T09:14:51.778Z,100403.88
2023-02-19T09:17:54.830Z,100411.28
2023-02-19T09:21:01.568Z,100406.81
2023-02-19T09:24:04.969Z,100394.66
2023-02-19T09:27:07.750Z,100399.47
2023-02-19T09:30:11.286Z,100398.03
2023-02-19T09:33:14.289Z,100387.66
2023-02-19T09:36:18.982Z,100393.50
2023-02-19T09:39:22.192Z,100392.28
2023-02-19T09:42:30.032Z,100380.84
2023-02-19T09:45:35.221Z,100388.72
2023-02-19T09:48:39.022Z,100386.53
2023-02-19T09:51:48.039Z,100381.66
2023-02-19T09:54:57.811Z,100376.47
2023-02-19T09:58:03.322Z,100362.37
2023-02-19T10:01:11.202Z,100356.28
2023-02-19T10:04:15.277Z,100359.75
2023-02-19T10:07:24.733Z,100349.63
2023-02-19T10:10:35.144Z,100347.41
2023-02-19T10:13:44.017Z,100349.84
2023-02-19T10:16:52.643Z,100335.94
2023-02-19T10:19:57.325Z,100337.56
2023-02-19T10:23:07.055Z,100322.31
2023-02-19T10:26:10.763Z,100323.12
2023-02-19T10:29:14.688Z,100318.97
2023-02-19T10:32:24.312Z,100312.88
2023-02-19T10:35:28.890Z,100313.66
2023-02-19T10:38:38.840Z,100321.34
2023-02-19T10:41:44.310Z,100309.97
2023-02-19T10:44:59.267Z,100309.62
2023-02-19T10:48:04.030Z,100312.44
2023-02-19T10:51:11.567Z,100308.06
2023-02-19T10:54:26.113Z,100316.03
2023-02-19T10:57:33.466Z,100307.66
2023-02-19T11:00:37.034Z,100296.53
2023-02-19T11:03:40.449Z,100285.06
2023-02-19T11:06:45.933Z,100276.72
2023-02-19T11:09:54.293Z,100263.41
2023-02-19T11:13:03.593Z,100275.22
2023-02-19T11:16:07.135Z,100272.00
2023-02-19T11:19:31.722Z,100278.66
2023-02-19T11:22:39.754Z,100255.28
2023-02-19T11:25:51.339Z,100260.50
2023-02-19T11:29:02.740Z,100253.78
2023-02-19T11:32:21.265Z,100246.22
2023-02-19T11:35:25.884Z,100241.56
2023-02-19T11:38:29.673Z,100244.09
2023-02-19T11:41:41.403Z,100226.50
2023-02-19T11:44:59.889Z,100228.97
2023-02-19T11:48:15.547Z,100224.69
2023-02-19T11:51:39.506Z,100237.69
2023-02-19T11:55:08.800Z,100231.06
2023-02-19T11:58:52.518Z,100231.03
2023-02-19T12:02:54.440Z,100227.81
2023-02-19T12:06:45.739Z,100224.59
2023-02-19T12:10:08.830Z,100215.59
2023-02-19T12:13:20.032Z,100223.72
2023-02-19T12:17:03.469Z,100216.19
2023-02-19T12:20:17.940Z,100207.94
2023-02-19T12:23:46.122Z,100211.13
2023-02-19T12:27:08.070Z,100201.62
2023-02-19T12:30:44.972Z,100187.50
2023-02-19T12:34:08.175Z,100206.91
2023-02-19T12:37:25.775Z,100187.56
2023-02-19T12:40:50.990Z,100186.59
2023-02-19T12:44:30.542Z,100193.06
2023-02-19T12:47:40.961Z,100188.94
2023-02-19T12:50:48.947Z,100174.50
2023-02-19T12:54:01.904Z,100178.25
2023-02-19T12:57:30.404Z,100170.34
2023-02-19T13:00:50.606Z,100157.56
2023-02-19T13:04:12.022Z,100163.13
2023-02-19T13:07:24.166Z,100179.37
2023-02-19T13:10:33.353Z,100162.63
2023-02-19T13:13:56.297Z,100160.38
2023-02-19T13:17:19.044Z,100152.50
2023-02-19T13:20:35.662Z,100173.28
2023-02-19T13:24:01.844Z,100161.63
2023-02-19T13:27:11.608Z,100191.31
2023-02-19T13:35:06.655Z,100207.31
2023-02-19T13:38:13.444Z,100238.59
2023-02-19T13:41:28.985Z,100247.59
2023-02-19T13:44:35.055Z,100248.38
2023-02-19T13:48:26.453Z,100257.69
2023-02-19T13:51:30.091Z,100268.44
2023-02-19T13:54:40.572Z,100283.31
2023-02-19T13:57:45.099Z,100281.63
2023-02-19T14:00:53.843Z,100284.53
2023-02-19T14:04:22.188Z,100288.31
2023-02-19T14:07:28.575Z,100277.41
2023-02-19T14:10:50.378Z,100281.03
2023-02-19T14:13:54.939Z,100288.88
2023-02-19T14:17:08.121Z,100289.38
2023-02-19T14:20:17.597Z,100282.16
2023-02-19T14:23:24.696Z,100278.16
2023-02-19T14:26:31.144Z,100278.91
2023-02-19T14:29:36.176Z,100286.91
2023-02-19T14:32:43.642Z,100289.69
2023-02-19T14:35:54.194Z,100298.78
2023-02-19T14:39:14.426Z,100321.59
2023-02-19T14:42:34.068Z,100325.22
2023-02-19T14:45:54.208Z,100332.75
2023-02-19T14:49:35.472Z,100327.81
2023-02-19T14:52:48.941Z,100325.31
2023-02-19T14:55:56.863Z,100329.34
2023-02-19T14:59:12.541Z,100319.78
2023-02-19T15:02:22.717Z,100320.09
2023-02-19T15:05:39.642Z,100328.34
2023-02-19T15:08:51.340Z,100332.72
2023-02-19T15:11:56.124Z,100332.47
2023-02-19T15:15:04.173Z,100351.63
2023-02-19T15:18:07.402Z,100364.44
2023-02-19T15:21:24.002Z,100358.22
2023-02-19T15:24:28.940Z,100372.66
2023-02-19T15:27:34.972Z,100374.31
2023-02-19T15:30:42.124Z,100391.38
2023-02-19T15:33:53.970Z,100374.38
2023-02-19T15:37:05.652Z,100392.56
2023-02-19T15:40:14.448Z,100384.53
2023-02-19T15:43:41.077Z,100396.75
2023-02-19T15:46:47.359Z,100397.34
2023-02-19T15:50:25.888Z,100402.47
2023-02-19T15:53:35.470Z,100389.03
2023-02-19T15:56:45.514Z,100404.00
2023-02-19T16:00:01.996Z,100402.47
2023-02-19T16:03:21.601Z,100414.00
2023-02-19T16:06:27.684Z,100400.13
2023-02-19T16:09:35.472Z,100403.66
2023-02-19T16:12:42.447Z,100406.78
2023-02-19T16:16:17.560Z,100413.44
2023-02-19T16:19:33.111Z,100420.94
2023-02-19T16:22:44.175Z,100423.28
2023-02-19T16:25:49.233Z,100416.44
2023-02-19T16:28:55.577Z,100419.44
2023-02-19T16:32:06.338Z,100437.16
2023-02-19T16:35:41.197Z,100467.56
2023-02-19T16:39:10.894Z,100492.44
2023-02-19T16:42:16.638Z,100501.63
2023-02-19T16:45:21.935Z,100524.00
2023-02-19T16:48:25.881Z,100519.72
2023-02-19T16:51:29.842Z,100526.69
2023-02-19T16:54:33.974Z,100521.94
2023-02-19T16:57:39.504Z,100525.97
2023-02-19T17:00:47.873Z,100536.13
2023-02-19T17:03:54.041Z,100544.69
2023-02-19T17:06:58.280Z,100537.09
2023-02-19T17:10:04.165Z,100533.44
2023-02-19T17:13:12.243Z,100540.56
2023-02-19T17:16:24.020Z,100550.94
2023-02-19T17:19:28.983Z,100552.53
2023-02-19T17:22:33.331Z,100566.81
2023-02-19T17:25:37.053Z,100576.19
2023-02-19T17:28:42.903Z,100590.34
2023-02-19T17:31:46.499Z,100589.50
2023-02-19T17:34:50.999Z,100571.28
2023-02-19T17:37:55.071Z,100582.00
2023-02-19T17:40:59.168Z,100589.31
2023-02-19T17:44:03.736Z,100579.53
2023-02-19T17:47:08.495Z,100562.28
2023-02-19T17:50:21.130Z,100584.31
2023-02-19T17:53:26.267Z,100601.31
2023-02-19T17:56:32.516Z,100602.34
2023-02-19T17:59:37.760Z,100605.47
2023-02-19T18:02:41.797Z,100599.56
2023-02-19T18:05:46.178Z,100617.31
2023-02-19T18:08:54.600Z,100635.03
2023-02-19T18:11:59.318Z,100630.31
2023-02-19T18:15:05.929Z,100647.00
2023-02-19T18:18:11.257Z,100641.59
2023-02-19T18:21:15.036Z,100644.69
2023-02-19T18:24:20.660Z,100642.41
2023-02-19T18:27:26.551Z,100656.47
2023-02-19T18:30:32.038Z,100664.03
2023-02-19T18:33:36.229Z,100676.25
2023-02-19T18:36:44.428Z,100674.37
2023-02-19T18:39:49.342Z,100678.06
2023-02-19T18:42:56.795Z,100692.31
2023-02-19T18:46:00.648Z,100689.41
2023-02-19T18:49:04.748Z,100692.28
2023-02-19T18:52:08.201Z,100700.06
2023-02-19T18:55:12.943Z,100710.31
2023-02-19T18:58:17.678Z,100726.66
2023-02-19T19:01:23.514Z,100741.87
2023-02-19T19:04:28.706Z,100746.22
2023-02-19T19:07:33.159Z,100761.19
2023-02-19T19:10:37.568Z,100763.41
2023-02-19T19:13:41.830Z,100775.22
2023-02-19T19:16:46.844Z,100766.94
2023-02-19T19:19:50.994Z,100773.75
2023-02-19T19:22:59.269Z,100783.84
2023-02-19T19:26:07.067Z,100779.47
2023-02-19T19:29:15.189Z,100768.97
2023-02-19T19:32:23.065Z,100775.84
2023-02-19T19:35:29.241Z,100776.44
2023-02-19T19:38:33.898Z,100771.44
2023-02-19T19:41:38.974Z,100779.78
2023-02-19T19:44:46.701Z,100792.31
2023-02-19T19:47:50.750Z,100792.84
2023-02-19T19:50:57.467Z,100800.53
2023-02-19T19:54:02.616Z,100807.84
2023-02-19T19:57:06.853Z,100817.13
2023-02-19T20:00:16.787Z,100831.88
2023-02-19T20:03:21.543Z,100837.16
2023-02-19T20:06:31.766Z,100828.62
2023-02-19T20:09:35.934Z,100834.84
2023-02-19T20:12:44.030Z,100844.78
2023-02-19T20:15:50.390Z,100851.63
2023-02-19T20:18:55.269Z,100846.94
2023-02-19T20:22:03.322Z,100845.06
2023-02-19T20:25:07.201Z,100859.16
2023-02-19T20:28:11.908Z,100859.22
2023-02-19T20:31:16.407Z,100864.63
2023-02-19T20:34:21.162Z,100875.31
2023-02-19T20:37:25.768Z,100899.03
2023-02-19T20:40:32.208Z,100904.91
2023-02-19T20:43:36.935Z,100914.63
2023-02-19T20:46:47.401Z,100924.69
2023-02-19T20:49:52.516Z,100939.09
2023-02-19T20:52:56.994Z,100942.53
2023-02-19T20:56:01.597Z,100948.78
2023-02-19T20:59:05.932Z,100959.31
2023-02-19T21:02:19.907Z,100963.50
2023-02-19T21:05:24.146Z,100963.81
2023-02-19T21:08:27.883Z,100965.09
2023-02-19T21:11:35.768Z,100967.62
2023-02-19T21:14:40.158Z,100970.84
2023-02-19T21:17:47.262Z,100965.63
2023-02-19T21:20:52.539Z,100974.66
2023-02-19T21:23:58.332Z,100970.44
2023-02-19T21:27:01.812Z,100981.44
2023-02-19T21:30:07.256Z,100983.50
2023-02-19T21:33:10.486Z,100992.56
2023-02-19T21:36:14.410Z,100991.09
2023-02-19T21:39:21.209Z,100992.78
2023-02-19T21:42:26.663Z,100996.19
2023-02-19T21:45:29.798Z,101000.50
2023-02-19T21:48:33.080Z,101001.59
2023-02-19T21:51:39.089Z,100997.31
2023-02-19T21:54:42.540Z,101011.97
2023-02-19T21:57:45.882Z,101005.81
2023-02-19T22:00:49.291Z,101013.97
2023-02-19T22:03:52.851Z,101020.22
2023-02-19T22:06:56.765Z,101029.69
2023-02-19T22:09:59.760Z,101037.44
2023-02-19T22:13:02.498Z,101041.38
2023-02-19T22:16:06.074Z,101049.12
2023-02-19T22:19:10.099Z,101056.66
2023-02-19T22:22:13.315Z,101063.06
2023-02-19T22:25:16.217Z,101055.16
2023-02-19T22:28:19.311Z,101058.22
2023-02-19T22:31:24.271Z,101070.91
2023-02-19T22:34:27.331Z,101067.97
2023-02-19T22:37:30.116Z,101076.19
2023-02-19T22:40:33.140Z,101070.22
2023-02-19T22:43:35.903Z,101063.09
2023-02-19T22:46:39.032Z,101055.78
2023-02-19T22:49:43.802Z,101053.34
2023-02-19T22:52:46.895Z,101058.53
2023-02-19T22:55:49.684Z,101059.47
2023-02-19T22:58:54.413Z,101069.09
2023-02-19T23:01:57.364Z,101074.31
2023-02-19T23:05:00.435Z,101081.41
2023-02-19T23:08:03.132Z,101073.56
2023-02-19T23:11:06.223Z,101085.03
2023-02-19T23:14:08.979Z,101090.13
2023-02-19T23:17:12.065Z,101096.09
2023-02-19T23:20:14.899Z,101095.69
2023-02-19T23:23:17.999Z,101094.56
2023-02-19T23:26:20.708Z,101106.19
2023-02-19T23:29:25.691Z,101103.84
2023-02-19T23:32:28.436Z,101096.44
2023-02-19T23:35:32.205Z,101092.38
2023-02-19T23:38:34.984Z,101102.91
2023-02-19T23:41:38.632Z,101100.28
2023-02-19T23:44:41.307Z,101105.34
2023-02-19T23:47:44.383Z,101112.97
2023-02-19T23:50:47.082Z,101119.13
2023-02-19T23:53:50.117Z,101110.41
2023-02-19T23:56:52.812Z,101116.19
2023-02-19T23:59:55.783Z,101115.69
